Time;durP1;ratioP1;P1;durP2;ratioP2;P2;SDS_P1;SDS_P2;PMS_P1;PMS_P2;Temp;Humidity;BMP_temperature;BMP_pressure;BME280_temperature;BME280_humidity;BME280_pressure;Samples;Min_cycle;Max_cycle;Signal;HPM_P1;HPM_P2
2022/04/29 00:01:22;;;;;;;5.90;3.20;;;;;;;;;;5040381;28;20033;-84
2022/04/29 00:03:47;;;;;;;5.47;3.08;;;;;;;;;;5046151;28;20126;-85
2022/04/29 00:06:16;;;;;;;5.53;2.80;;;;;;;;;;5045121;28;20035;-83
2022/04/29 00:08:42;;;;;;;7.43;4.07;;;;;;;;;;5040741;28;20617;-83
2022/04/29 00:11:08;;;;;;;5.45;3.95;;;;;;;;;;5038810;28;20116;-82
2022/04/29 00:13:34;;;;;;;8.05;4.38;;;;;;;;;;5037171;28;20025;-85
2022/04/29 00:16:00;;;;;;;6.82;3.53;;;;;;;;;;5038050;28;20033;-83
2022/04/29 00:18:26;;;;;;;5.20;3.20;;;;;;;;;;5041932;28;20080;-82
2022/04/29 00:20:52;;;;;;;7.15;3.70;;;;;;;;;;5047189;28;20033;-83
2022/04/29 00:23:18;;;;;;;7.38;3.80;;;;;;;;;;5043890;28;20657;-83
2022/04/29 00:25:45;;;;;;;4.65;3.20;;;;;;;;;;5043490;28;20025;-82
2022/04/29 00:28:11;;;;;;;6.22;3.47;;;;;;;;;;5045119;28;20028;-82
2022/04/29 00:30:37;;;;;;;9.13;3.47;;;;;;;;;;5040852;28;20021;-84
2022/04/29 00:33:03;;;;;;;5.13;3.47;;;;;;;;;;5043061;28;20116;-82
2022/04/29 00:35:29;;;;;;;5.47;3.30;;;;;;;;;;5037664;28;22230;-85
2022/04/29 00:37:56;;;;;;;4.70;2.90;;;;;;;;;;5041437;28;20307;-84
2022/04/29 00:40:25;;;;;;;5.93;2.60;;;4.60;99.90;;;;;;5036499;28;20032;-83
2022/04/29 00:42:51;;;;;;;5.47;2.95;;;;;;;;;;5042927;28;20485;-82
2022/04/29 00:45:18;;;;;;;5.70;2.92;;;;;;;;;;5040219;28;20040;-84
2022/04/29 00:47:45;;;;;;;5.72;4.28;;;;;;;;;;5043869;28;20396;-82
2022/04/29 00:50:12;;;;;;;3.88;3.25;;;;;;;;;;5046819;28;20025;-83
2022/04/29 00:52:41;;;;;;;5.90;3.03;;;;;;;;;;5046406;28;20108;-83
2022/04/29 00:55:09;;;;;;;8.48;3.75;;;;;;;;;;5042698;28;20055;-84
2022/04/29 00:57:41;;;;;;;5.65;3.28;;;;;;;;;;5047666;28;20037;-84
2022/04/29 01:00:08;;;;;;;7.07;3.97;;;;;;;;;;5040838;28;20525;-85
2022/04/29 01:02:35;;;;;;;5.90;3.58;;;;;;;;;;5049870;28;20060;-84
2022/04/29 01:05:05;;;;;;;8.88;4.43;;;;;;;;;;5042166;28;20409;-84
2022/04/29 01:07:32;;;;;;;4.80;3.08;;;;;;;;;;5040130;28;20154;-84
2022/04/29 01:09:59;;;;;;;5.50;3.22;;;;;;;;;;5038209;28;20037;-84
2022/04/29 01:12:26;;;;;;;7.57;3.63;;;;;;;;;;5048896;28;20393;-82
2022/04/29 01:14:55;;;;;;;5.70;3.25;;;;;;;;;;5039529;28;20025;-84
2022/04/29 01:17:21;;;;;;;7.03;3.40;;;;;;;;;;5036868;28;20044;-84
2022/04/29 01:19:47;;;;;;;8.27;3.55;;;;;;;;;;5044142;28;20082;-84
2022/04/29 01:22:13;;;;;;;5.82;3.63;;;;;;;;;;5046506;28;20052;-83
2022/04/29 01:24:39;;;;;;;5.82;3.15;;;;;;;;;;5040059;28;20090;-83
2022/04/29 01:27:10;;;;;;;4.50;3.08;;;;;;;;;;5041514;28;20021;-84
2022/04/29 01:29:37;;;;;;;6.55;3.15;;;;;;;;;;5039348;28;20039;-84
2022/04/29 01:32:03;;;;;;;6.28;3.15;;;;;;;;;;5041677;28;20492;-84
2022/04/29 01:34:29;;;;;;;5.68;2.88;;;;;;;;;;5044640;28;20125;-84
2022/04/29 01:36:55;;;;;;;6.85;2.83;;;;;;;;;;5051693;28;20114;-84
2022/04/29 01:39:21;;;;;;;3.05;1.88;;;;;;;;;;5045031;28;20037;-83
2022/04/29 01:41:47;;;;;;;6.53;3.10;;;;;;;;;;5049655;28;20104;-83
2022/04/29 01:44:13;;;;;;;6.63;3.38;;;;;;;;;;5044713;28;20026;-83
2022/04/29 01:46:39;;;;;;;5.28;3.22;;;;;;;;;;5041523;28;20032;-84
2022/04/29 01:49:05;;;;;;;2.92;2.38;;;;;;;;;;5044293;28;20521;-83
2022/04/29 01:51:31;;;;;;;4.90;3.03;;;;;;;;;;5048368;28;20025;-83
2022/04/29 01:53:57;;;;;;;6.20;3.45;;;;;;;;;;5047318;28;20025;-84
2022/04/29 01:56:32;;;;;;;5.45;3.25;;;;;;;;;;5047041;28;20499;-84
2022/04/29 01:58:59;;;;;;;5.78;3.00;;;;;;;;;;5049356;28;20049;-84
2022/04/29 02:01:25;;;;;;;6.68;3.20;;;;;;;;;;5033065;28;20032;-84
2022/04/29 02:03:51;;;;;;;4.53;3.13;;;;;;;;;;5046382;28;20053;-83
2022/04/29 02:06:17;;;;;;;6.03;3.33;;;;;;;;;;5046890;28;20053;-84
2022/04/29 02:08:43;;;;;;;6.47;3.22;;;;;;;;;;5048696;28;20025;-84
2022/04/29 02:11:09;;;;;;;3.72;2.63;;;;;;;;;;5043176;28;20025;-84
2022/04/29 02:13:35;;;;;;;8.15;3.05;;;;;;;;;;5048177;28;20028;-83
2022/04/29 02:16:01;;;;;;;6.63;3.50;;;;;;;;;;5043181;28;20041;-84
2022/04/29 02:18:27;;;;;;;6.32;3.80;;;;;;;;;;5046894;28;20048;-83
2022/04/29 02:20:52;;;;;;;7.40;4.13;;;4.50;99.90;;;;;;5044848;28;20024;-83
2022/04/29 02:23:18;;;;;;;7.18;3.25;;;;;;;;;;5047912;28;20508;-84
2022/04/29 02:25:45;;;;;;;6.95;3.42;;;;;;;;;;5045112;28;20032;-83
2022/04/29 02:28:11;;;;;;;8.10;3.78;;;;;;;;;;5047172;28;20614;-83
2022/04/29 02:30:37;;;;;;;5.47;3.17;;;;;;;;;;5047526;28;20067;-84
2022/04/29 02:33:03;;;;;;;5.10;3.03;;;4.10;99.90;;;;;;5042983;28;20056;-83
2022/04/29 02:35:29;;;;;;;4.70;2.88;;;;;;;;;;5043092;28;20014;-86
2022/04/29 02:37:55;;;;;;;4.32;3.00;;;;;;;;;;5040877;28;20071;-83
2022/04/29 02:40:23;;;;;;;6.90;3.15;;;;;;;;;;5036656;28;20167;-84
2022/04/29 02:42:49;;;;;;;2.72;2.05;;;;;;;;;;5043953;28;20048;-83
2022/04/29 02:45:14;;;;;;;3.40;2.35;;;;;;;;;;5038746;28;20489;-84
2022/04/29 02:47:40;;;;;;;4.78;2.88;;;;;;;;;;5047801;28;20389;-83
2022/04/29 02:50:07;;;;;;;6.53;3.28;;;;;;;;;;5046931;28;20472;-83
2022/04/29 02:52:33;;;;;;;4.30;2.70;;;;;;;;;;5038220;28;20031;-85
2022/04/29 02:54:59;;;;;;;8.60;3.53;;;;;;;;;;5044142;28;20029;-84
2022/04/29 02:57:25;;;;;;;4.72;2.15;;;;;;;;;;5044976;28;20037;-85
2022/04/29 02:59:51;;;;;;;4.95;2.95;;;;;;;;;;5048580;28;20017;-83
2022/04/29 03:02:16;;;;;;;12.65;3.58;;;;;;;;;;5043020;28;20031;-83
2022/04/29 03:04:42;;;;;;;5.47;3.53;;;;;;;;;;5050364;28;20035;-83
2022/04/29 03:07:08;;;;;;;5.43;3.03;;;;;;;;;;5044999;28;20033;-83
2022/04/29 03:09:34;;;;;;;4.40;2.85;;;;;;;;;;5040359;28;20047;-85
2022/04/29 03:12:00;;;;;;;5.35;3.20;;;;;;;;;;5045605;28;20024;-83
2022/04/29 03:14:26;;;;;;;4.72;3.08;;;;;;;;;;5046683;28;20060;-85
2022/04/29 03:16:52;;;;;;;4.65;2.72;;;;;;;;;;5043282;28;20034;-85
2022/04/29 03:19:18;;;;;;;5.97;3.75;;;;;;;;;;5046564;28;20113;-85
2022/04/29 03:21:44;;;;;;;6.80;2.95;;;;;;;;;;5046426;28;20025;-84
2022/04/29 03:24:10;;;;;;;4.95;2.63;;;;;;;;;;5045798;28;20025;-83
2022/04/29 03:26:37;;;;;;;6.70;3.92;;;;;;;;;;5044152;28;20029;-84
2022/04/29 03:29:03;;;;;;;4.88;3.38;;;;;;;;;;5046888;28;20044;-86
2022/04/29 03:31:29;;;;;;;4.22;3.08;;;;;;;;;;5042490;28;20025;-85
2022/04/29 03:33:55;;;;;;;7.22;3.28;;;;;;;;;;5054428;28;20032;-83
2022/04/29 03:36:21;;;;;;;8.13;3.55;;;;;;;;;;5041617;28;20048;-83
2022/04/29 03:38:47;;;;;;;6.18;3.53;;;;;;;;;;5044383;28;20028;-84
2022/04/29 03:41:13;;;;;;;5.78;2.80;;;;;;;;;;5037727;28;20021;-83
2022/04/29 03:43:39;;;;;;;6.47;3.38;;;;;;;;;;5044754;28;20021;-84
2022/04/29 03:46:05;;;;;;;7.82;3.75;;;;;;;;;;5044340;28;20081;-86
2022/04/29 03:49:35;;;;;;;6.10;3.03;;;;;;;;;;5043597;28;20576;-86
2022/04/29 03:51:17;;;;;;;4.90;3.20;;;;;;;;;;5039642;28;20567;-83
2022/04/29 03:53:43;;;;;;;6.20;3.55;;;;;;;;;;5043774;28;20040;-82
2022/04/29 03:56:09;;;;;;;6.57;3.97;;;;;;;;;;5046525;28;20514;-83
2022/04/29 03:58:35;;;;;;;3.95;3.22;;;;;;;;;;5042300;28;20017;-83
2022/04/29 04:01:01;;;;;;;5.25;2.88;;;;;;;;;;5050925;28;20033;-83
2022/04/29 04:03:27;;;;;;;5.90;3.17;;;;;;;;;;5050217;28;20032;-83
2022/04/29 04:08:38;;;;;;;7.28;3.83;;;;;;;;;;5033851;28;20122;-84
2022/04/29 04:11:04;;;;;;;7.03;3.92;;;;;;;;;;5045102;28;20024;-86
2022/04/29 04:13:30;;;;;;;5.00;3.67;;;;;;;;;;5048464;28;20100;-84
2022/04/29 04:15:56;;;;;;;5.78;3.65;;;;;;;;;;5044398;28;20052;-81
2022/04/29 04:18:22;;;;;;;7.75;3.75;;;;;;;;;;5043504;28;20025;-84
2022/04/29 04:20:48;;;;;;;6.30;3.95;;;;;;;;;;5046767;28;20039;-83
2022/04/29 04:23:14;;;;;;;5.93;2.95;;;;;;;;;;5039193;28;20511;-82
2022/04/29 04:25:41;;;;;;;3.38;2.53;;;;;;;;;;5041146;28;20025;-84
2022/04/29 04:28:12;;;;;;;5.75;3.55;;;;;;;;;;5041166;28;20040;-84
2022/04/29 04:30:38;;;;;;;6.15;3.80;;;;;;;;;;5037731;28;20502;-84
2022/04/29 04:33:04;;;;;;;6.45;4.70;;;;;;;;;;5036543;28;20053;-83
2022/04/29 04:35:30;;;;;;;6.45;3.65;;;;;;;;;;5043327;28;20017;-83
2022/04/29 04:37:56;;;;;;;4.32;2.55;;;;;;;;;;5032471;28;20044;-83
2022/04/29 04:40:22;;;;;;;7.25;4.15;;;;;;;;;;5032204;28;20531;-85
2022/04/29 04:42:48;;;;;;;7.00;3.55;;;;;;;;;;5041504;28;20075;-79
2022/04/29 04:45:14;;;;;;;5.70;4.57;;;;;;;;;;5038299;28;20082;-80
2022/04/29 04:47:41;;;;;;;5.70;3.80;;;;;;;;;;5037619;28;20112;-83
2022/04/29 04:50:07;;;;;;;9.60;5.07;;;;;;;;;;5034720;28;20436;-82
2022/04/29 04:52:33;;;;;;;3.75;3.03;;;;;;;;;;5038238;28;20025;-85
2022/04/29 04:55:03;;;;;;;7.25;4.25;;;;;;;;;;5036286;28;24732;-87
2022/04/29 04:57:29;;;;;;;8.65;4.72;;;;;;;;;;5038387;28;20041;-83
2022/04/29 04:59:55;;;;;;;7.03;3.75;;;;;;;;;;5040740;28;20022;-84
2022/04/29 05:02:20;;;;;;;8.52;4.78;;;;;;;;;;5036066;28;20115;-85
2022/04/29 05:04:46;;;;;;;6.80;4.53;;;;;;;;;;5041402;28;20464;-84
2022/04/29 05:07:13;;;;;;;8.88;4.68;;;;;;;;;;5048207;28;20695;-82
2022/04/29 05:09:39;;;;;;;8.88;5.15;;;;;;;;;;5044927;28;20151;-84
2022/04/29 05:12:05;;;;;;;7.80;3.08;;;;;;;;;;5050520;28;20105;-84
2022/04/29 05:14:31;;;;;;;6.88;3.70;;;;;;;;;;5046917;28;20043;-84
2022/04/29 05:16:57;;;;;;;9.88;4.38;;;;;;;;;;5045566;28;20037;-83
2022/04/29 05:19:23;;;;;;;7.32;4.15;;;;;;;;;;5047637;28;20025;-83
2022/04/29 05:21:49;;;;;;;7.97;4.00;;;;;;;;;;5047223;28;20040;-84
2022/04/29 05:24:14;;;;;;;7.65;3.92;;;;;;;;;;5042521;28;20021;-84
2022/04/29 05:26:40;;;;;;;9.00;3.15;;;;;;;;;;5042509;28;20027;-82
2022/04/29 05:29:06;;;;;;;10.02;5.10;;;;;;;;;;5041809;28;20373;-84
2022/04/29 05:31:32;;;;;;;11.73;4.88;;;;;;;;;;5048524;28;20402;-83
2022/04/29 05:33:58;;;;;;;7.03;3.90;;;;;;;;;;5051281;28;20021;-83
2022/04/29 05:36:24;;;;;;;6.88;4.03;;;;;;;;;;5043209;28;20517;-81
2022/04/29 05:44:20;;;;;;;6.15;3.28;;;;;;;;;;5051078;28;20048;-83
2022/04/29 05:46:46;;;;;;;12.48;5.05;;;;;;;;;;5039289;28;20029;-85
2022/04/29 05:49:12;;;;;;;9.70;6.07;;;;;;;;;;5050988;28;20071;-82
2022/04/29 05:51:38;;;;;;;6.82;3.83;;;;;;;;;;5046388;28;20021;-83
2022/04/29 05:54:04;;;;;;;10.57;5.43;;;;;;;;;;5044298;28;20022;-83
2022/04/29 05:56:30;;;;;;;6.22;3.75;;;;;;;;;;5046421;28;20520;-84
2022/04/29 05:58:56;;;;;;;7.53;3.92;;;;;;;;;;5049438;28;20060;-86
2022/04/29 06:01:22;;;;;;;18.77;8.50;;;;;;;;;;5046356;28;20033;-83
2022/04/29 06:03:48;;;;;;;10.45;5.57;;;;;;;;;;5050618;28;20171;-83
2022/04/29 06:06:14;;;;;;;7.43;4.68;;;;;;;;;;5049800;28;20039;-83
2022/04/29 06:08:40;;;;;;;7.30;3.88;;;;;;;;;;5052224;28;20033;-84
2022/04/29 06:11:06;;;;;;;7.82;4.47;;;;;;;;;;5042184;28;20400;-85
2022/04/29 06:13:32;;;;;;;10.50;3.35;;;;;;;;;;5050861;28;20084;-85
2022/04/29 06:15:59;;;;;;;8.70;4.25;;;;;;;;;;5043905;28;20511;-84
2022/04/29 06:18:25;;;;;;;6.40;3.53;;;;;;;;;;5047762;28;20037;-84
2022/04/29 06:20:52;;;;;;;6.20;3.65;;;;;;;;;;5044537;28;20098;-84
2022/04/29 06:23:18;;;;;;;6.95;3.83;;;;;;;;;;5050728;28;20025;-83
2022/04/29 06:25:43;;;;;;;7.28;4.35;;;8.30;99.90;;;;;;5044296;28;20087;-84
2022/04/29 06:28:10;;;;;;;8.18;3.33;;;;;;;;;;5048346;28;20528;-84
2022/04/29 06:30:36;;;;;;;6.45;3.88;;;;;;;;;;5051189;28;20044;-83
2022/04/29 06:33:02;;;;;;;10.93;4.05;;;;;;;;;;5047097;28;20049;-83
2022/04/29 06:35:28;;;;;;;6.38;4.55;;;;;;;;;;5047134;28;20025;-84
2022/04/29 06:37:54;;;;;;;7.65;4.18;;;;;;;;;;5047024;28;20053;-84
2022/04/29 06:40:20;;;;;;;6.47;3.85;;;;;;;;;;5049529;28;20401;-82
2022/04/29 06:42:46;;;;;;;10.40;4.78;;;;;;;;;;5047477;28;20559;-84
2022/04/29 06:45:14;;;;;;;8.68;4.15;;;;;;;;;;5044331;28;21569;-85
2022/04/29 06:47:40;;;;;;;7.63;3.75;;;;;;;;;;5039610;28;20499;-81
2022/04/29 06:50:06;;;;;;;6.53;3.50;;;;;;;;;;5041219;28;20032;-82
2022/04/29 06:52:32;;;;;;;8.85;4.70;;;;;;;;;;5043047;28;20611;-81
2022/04/29 06:54:58;;;;;;;9.65;5.65;;;;;;;;;;5043045;28;20060;-82
2022/04/29 06:57:24;;;;;;;4.88;3.53;;;;;;;;;;5045056;28;20075;-80
2022/04/29 06:59:50;;;;;;;4.78;3.33;;;;;;;;;;5044474;28;20018;-80
2022/04/29 07:02:16;;;;;;;4.85;3.13;;;;;;;;;;5038334;28;20044;-80
2022/04/29 07:04:42;;;;;;;6.95;3.30;;;;;;;;;;5050341;28;20103;-79
2022/04/29 07:07:11;;;;;;;7.90;4.18;;;;;;;;;;5044810;28;20175;-80
2022/04/29 07:09:38;;;;;;;5.63;3.25;;;;;;;;;;5047009;28;20089;-81
2022/04/29 07:12:05;;;;;;;8.60;3.38;;;;;;;;;;5043158;28;20033;-81
2022/04/29 07:14:30;;;;;;;8.35;3.78;;;12.10;99.90;;;;;;5051432;28;20122;-81
2022/04/29 07:16:56;;;;;;;4.43;3.33;;;;;;;;;;5046262;28;20503;-81
2022/04/29 07:19:22;;;;;;;8.55;3.88;;;;;;;;;;5050724;28;20523;-80
2022/04/29 07:21:48;;;;;;;6.20;3.50;;;;;;;;;;5046263;28;20028;-81
2022/04/29 07:24:14;;;;;;;5.40;2.47;;;;;;;;;;5041808;28;20162;-81
2022/04/29 07:26:40;;;;;;;8.07;2.85;;;;;;;;;;5040104;28;20026;-82
2022/04/29 07:29:07;;;;;;;6.90;3.78;;;14.30;99.90;;;;;;5043080;28;20049;-82
2022/04/29 07:31:33;;;;;;;6.75;3.72;;;;;;;;;;5045027;28;20025;-79
2022/04/29 07:33:59;;;;;;;7.03;3.67;;;;;;;;;;5050761;28;20033;-81
2022/04/29 07:41:54;;;;;;;5.20;2.95;;;;;;;;;;5041443;28;20413;-82
2022/04/29 07:44:20;;;;;;;4.60;2.45;;;;;;;;;;5031595;28;20037;-82
2022/04/29 07:46:47;;;;;;;5.25;2.70;;;;;;;;;;5039914;28;20063;-82
2022/04/29 07:49:13;;;;;;;4.80;2.30;;;;;;;;;;5041620;28;20075;-82
2022/04/29 07:51:40;;;;;;;5.05;2.80;;;;;;;;;;5043535;28;20079;-82
2022/04/29 07:54:06;;;;;;;6.68;3.45;;;;;;;;;;5045091;28;20242;-82
2022/04/29 07:56:32;;;;;;;4.57;2.80;;;;;;;;;;5044843;28;20124;-81
2022/04/29 07:58:58;;;;;;;7.78;3.17;;;;;;;;;;5040815;28;20132;-81
2022/04/29 08:01:26;;;;;;;5.40;3.15;;;;;;;;;;5036748;28;20397;-82
2022/04/29 08:03:55;;;;;;;5.35;3.08;;;18.00;99.50;;;;;;5044047;28;20134;-82
2022/04/29 08:06:21;;;;;;;5.78;3.42;;;;;;;;;;5039752;28;20786;-82
2022/04/29 08:08:47;;;;;;;6.57;3.35;;;17.70;99.90;;;;;;5039135;28;20036;-82
2022/04/29 08:11:14;;;;;;;9.43;3.83;;;18.50;99.90;;;;;;5036380;28;20025;-79
2022/04/29 08:13:42;;;;;;;5.93;3.53;;;;;;;;;;5034794;28;20761;-82
2022/04/29 08:16:09;;;;;;;7.00;3.38;;;;;;;;;;5035361;28;20413;-82
2022/04/29 08:18:35;;;;;;;5.78;2.83;;;;;;;;;;5041132;28;20057;-84
2022/04/29 08:21:00;;;;;;;5.47;2.45;;;;;;;;;;5034354;28;20041;-82
2022/04/29 08:23:26;;;;;;;3.70;2.40;;;;;;;;;;5035778;28;20083;-83
2022/04/29 08:25:52;;;;;;;6.07;3.47;;;;;;;;;;5033007;28;20017;-81
2022/04/29 08:28:18;;;;;;;5.07;3.08;;;;;;;;;;5037003;28;20025;-82
2022/04/29 08:30:45;;;;;;;3.58;2.53;;;;;;;;;;5040871;28;20504;-82
2022/04/29 08:33:14;;;;;;;3.53;2.90;;;;;;;;;;5042228;28;20033;-84
2022/04/29 08:35:40;;;;;;;3.70;2.25;;;;;;;;;;5042245;28;20033;-82
2022/04/29 08:38:10;;;;;;;5.93;2.05;;;;;;;;;;5045517;28;20040;-82
2022/04/29 08:40:43;;;;;;;11.85;2.67;;;;;;;;;;5035052;28;20040;-83
2022/04/29 08:43:12;;;;;;;7.45;2.05;;;21.20;67.00;;;;;;5047828;28;20037;-82
2022/04/29 08:45:38;;;;;;;4.57;1.70;;;;;;;;;;5033622;28;20037;-83
2022/04/29 08:48:04;;;;;;;3.00;1.35;;;;;;;;;;5037454;28;20517;-82
2022/04/29 08:50:34;;;;;;;4.10;1.83;;;;;;;;;;5037309;28;20021;-83
2022/04/29 08:53:00;;;;;;;5.93;2.33;;;;;;;;;;5035228;28;20047;-83
2022/04/29 09:01:09;;;;;;;3.92;1.80;;;;;;;;;;5038962;28;20032;-82
2022/04/29 09:03:35;;;;;;;3.90;2.13;;;;;;;;;;5035095;28;20033;-83
2022/04/29 09:06:04;;;;;;;4.22;1.80;;;;;;;;;;5037181;28;20025;-84
2022/04/29 09:08:33;;;;;;;3.88;1.75;;;;;;;;;;5037164;28;20037;-82
2022/04/29 09:10:59;;;;;;;3.78;1.50;;;;;;;;;;5037992;28;20107;-82
2022/04/29 09:13:26;;;;;;;4.97;1.42;;;;;;;;;;5037104;28;20025;-83
2022/04/29 09:15:57;;;;;;;3.28;1.08;;;;;;;;;;5035889;28;20051;-82
2022/04/29 09:18:33;;;;;;;5.65;1.48;;;;;;;;;;5030691;28;20044;-83
2022/04/29 09:21:00;;;;;;;3.13;1.60;;;;;;;;;;5039312;28;20051;-83
2022/04/29 09:23:29;;;;;;;4.10;1.60;;;20.20;62.70;;;;;;5031460;28;20029;-82
2022/04/29 09:25:57;;;;;;;3.72;2.08;;;;;;;;;;5036863;28;20036;-85
2022/04/29 09:28:24;;;;;;;5.65;1.63;;;;;;;;;;5037908;28;20041;-83
2022/04/29 09:30:53;;;;;;;3.58;1.67;;;;;;;;;;5034132;28;20025;-84
2022/04/29 09:33:20;;;;;;;6.90;1.77;;;;;;;;;;5037814;28;20397;-82
2022/04/29 09:35:48;;;;;;;4.40;1.67;;;;;;;;;;5035852;28;20024;-84
2022/04/29 09:41:00;;;;;;;3.97;2.08;;;;;;;;;;5037619;28;20559;-83
2022/04/29 09:43:36;;;;;;;4.13;2.05;;;;;;;;;;5036959;28;20587;-84
2022/04/29 09:46:24;;;;;;;3.47;1.75;;;19.70;60.90;;;;;;5037522;28;20563;-84
2022/04/29 09:48:53;;;;;;;4.10;1.95;;;;;;;;;;5040146;28;20485;-83
2022/04/29 09:51:38;;;;;;;6.20;2.28;;;;;;;;;;5042345;28;20025;-82
2022/04/29 09:54:11;;;;;;;3.47;1.70;;;;;;;;;;5043130;28;20116;-84
2022/04/29 09:56:38;;;;;;;4.57;1.90;;;;;;;;;;5038675;28;20041;-84
2022/04/29 09:59:04;;;;;;;2.50;1.50;;;;;;;;;;5039384;28;20061;-82
2022/04/29 10:01:30;;;;;;;4.57;1.52;;;;;;;;;;5043846;28;20040;-83
2022/04/29 10:03:56;;;;;;;2.38;1.40;;;;;;;;;;5040924;28;20029;-83
2022/04/29 10:06:23;;;;;;;2.13;1.33;;;;;;;;;;5050152;28;20067;-84
2022/04/29 10:08:50;;;;;;;2.80;1.50;;;;;;;;;;5043698;28;20653;-83
2022/04/29 10:11:18;;;;;;;5.90;1.95;;;;;;;;;;5045078;28;20542;-84
2022/04/29 10:13:45;;;;;;;4.60;2.60;;;;;;;;;;5040288;28;20033;-84
2022/04/29 10:16:16;;;;;;;4.65;1.88;;;21.30;57.10;;;;;;5042366;28;20401;-84
2022/04/29 10:21:36;;;;;;;3.28;1.80;;;21.20;58.60;;;;;;5042102;28;23627;-82
2022/04/29 10:24:02;;;;;;;5.43;1.95;;;;;;;;;;5039187;28;20025;-83
2022/04/29 10:26:27;;;;;;;2.33;1.70;;;21.60;78.00;;;;;;5040731;28;20044;-83
2022/04/29 10:28:54;;;;;;;4.30;1.73;;;;;;;;;;5038081;28;20021;-83
2022/04/29 10:31:21;;;;;;;5.85;1.30;;;;;;;;;;5039392;28;20051;-83
2022/04/29 10:33:47;;;;;;;2.42;1.48;;;;;;;;;;5038831;28;20094;-82
2022/04/29 10:36:17;;;;;;;3.00;1.42;;;;;;;;;;5038992;28;20033;-83
2022/04/29 10:38:46;;;;;;;2.55;1.27;;;;;;;;;;5049907;28;20025;-82
2022/04/29 10:41:12;;;;;;;2.53;1.88;;;;;;;;;;5054168;28;20468;-84
2022/04/29 10:43:46;;;;;;;2.47;1.60;;;;;;;;;;5046437;28;20017;-82
2022/04/29 10:46:13;;;;;;;5.75;1.30;;;;;;;;;;5046968;28;20055;-82
2022/04/29 10:48:40;;;;;;;2.97;1.38;;;;;;;;;;5050136;28;20021;-83
2022/04/29 10:51:15;;;;;;;1.80;1.33;;;20.30;57.60;;;;;;5045833;28;20037;-83
2022/04/29 10:53:43;;;;;;;2.17;1.30;;;20.20;57.30;;;;;;5050611;28;20032;-83
2022/04/29 10:56:31;;;;;;;3.35;1.73;;;19.60;58.30;;;;;;5053841;28;20025;-83
2022/04/29 10:59:12;;;;;;;3.78;1.58;;;;;;;;;;5051202;28;20485;-84
2022/04/29 11:01:39;;;;;;;4.10;1.65;;;;;;;;;;5046834;28;20119;-84
2022/04/29 11:04:05;;;;;;;4.03;1.98;;;;;;;;;;5049709;28;20028;-86
2022/04/29 11:06:40;;;;;;;3.70;1.75;;;;;;;;;;5058198;28;20048;-84
2022/04/29 11:09:30;;;;;;;4.35;1.70;;;;;;;;;;5051977;28;20037;-84
2022/04/29 11:11:56;;;;;;;2.47;1.45;;;;;;;;;;5045397;28;20599;-83
2022/04/29 11:14:23;;;;;;;3.83;1.42;;;;;;;;;;5049210;28;20045;-85
2022/04/29 11:16:52;;;;;;;1.73;1.33;;;;;;;;;;5042585;28;20033;-82
2022/04/29 11:19:27;;;;;;;2.90;1.67;;;20.80;56.20;;;;;;5047670;28;20029;-81
2022/04/29 11:24:45;;;;;;;3.58;1.85;;;;;;;;;;5048728;28;20151;-82
2022/04/29 11:27:11;;;;;;;2.53;1.65;;;;;;;;;;5039609;28;20392;-83
2022/04/29 11:29:44;;;;;;;2.85;2.15;;;;;;;;;;5042414;28;20021;-85
2022/04/29 11:32:10;;;;;;;3.97;1.77;;;;;;;;;;5039219;28;20033;-83
2022/04/29 11:34:36;;;;;;;2.45;1.17;;;;;;;;;;5048717;28;20818;-84
2022/04/29 11:37:02;;;;;;;1.98;1.05;;;;;;;;;;5046622;28;20102;-84
2022/04/29 11:39:35;;;;;;;3.47;1.70;;;;;;;;;;5049086;28;20021;-84
2022/04/29 11:42:02;;;;;;;3.90;1.42;;;;;;;;;;5042768;28;20424;-84
2022/04/29 11:44:41;;;;;;;3.25;1.92;;;20.70;55.50;;;;;;5051769;28;20115;-85
2022/04/29 11:47:07;;;;;;;3.53;1.65;;;;;;;;;;5044146;28;20028;-83
2022/04/29 11:49:34;;;;;;;3.30;1.75;;;;;;;;;;5046720;28;20017;-83
2022/04/29 11:52:19;;;;;;;4.05;2.30;;;;;;;;;;5045187;28;20229;-84
2022/04/29 11:54:58;;;;;;;3.45;1.80;;;;;;;;;;5054440;28;20043;-82
2022/04/29 11:57:24;;;;;;;4.07;1.75;;;;;;;;;;5052695;28;20132;-83
2022/04/29 11:59:51;;;;;;;3.38;1.75;;;;;;;;;;5051421;28;20096;-84
2022/04/29 12:02:21;;;;;;;2.90;1.60;;;;;;;;;;5048285;28;20045;-83
2022/04/29 12:04:54;;;;;;;10.23;2.35;;;;;;;;;;5052836;28;20013;-82
2022/04/29 12:07:20;;;;;;;3.03;1.92;;;;;;;;;;5049501;28;20669;-82
2022/04/29 12:09:47;;;;;;;3.22;2.20;;;;;;;;;;5045206;28;20033;-83
2022/04/29 12:12:29;;;;;;;2.00;1.30;;;;;;;;;;5042805;28;20387;-78
2022/04/29 12:14:56;;;;;;;4.30;1.88;;;;;;;;;;5052867;28;20052;-83
2022/04/29 12:17:35;;;;;;;2.90;1.63;;;;;;;;;;5040460;28;20037;-84
2022/04/29 12:20:01;;;;;;;3.13;1.73;;;;;;;;;;5036621;28;20029;-82
2022/04/29 12:22:28;;;;;;;2.85;1.33;;;;;;;;;;5056087;28;20044;-83
2022/04/29 12:24:54;;;;;;;2.63;1.38;;;;;;;;;;5053758;28;20033;-85
2022/04/29 12:27:28;;;;;;;3.22;1.85;;;;;;;;;;5052510;28;20033;-83
2022/04/29 12:35:30;;;;;;;4.18;1.27;;;;;;;;;;5043391;28;20052;-83
2022/04/29 12:37:56;;;;;;;3.17;1.92;;;;;;;;;;5048688;28;20037;-83
2022/04/29 12:40:31;;;;;;;2.47;1.38;;;;;;;;;;5049238;28;20021;-79
2022/04/29 12:43:10;;;;;;;2.15;1.35;;;22.30;58.40;;;;;;5049770;28;20472;-80
2022/04/29 12:45:36;;;;;;;3.35;1.88;;;;;;;;;;5046284;28;20033;-82
2022/04/29 12:48:04;;;;;;;4.20;1.35;;;;;;;;;;5045311;28;20485;-78
2022/04/29 12:50:35;;;;;;;2.15;1.02;;;;;;;;;;5041560;28;20037;-80
2022/04/29 12:53:04;;;;;;;3.22;1.58;;;;;;;;;;5043638;28;20021;-79
2022/04/29 12:55:32;;;;;;;2.67;1.67;;;;;;;;;;5047108;28;20298;-79
2022/04/29 12:58:16;;;;;;;2.63;1.48;;;;;;;;;;5048550;28;20051;-79
2022/04/29 13:00:44;;;;;;;2.53;1.30;;;;;;;;;;5043809;28;20108;-79
2022/04/29 13:03:21;;;;;;;1.95;1.20;;;;;;;;;;5052991;28;20028;-79
2022/04/29 13:05:47;;;;;;;2.03;1.15;;;;;;;;;;5042505;28;20032;-79
2022/04/29 13:08:13;;;;;;;2.92;1.75;;;;;;;;;;5045131;28;20025;-81
2022/04/29 13:10:43;;;;;;;2.90;1.25;;;;;;;;;;5044661;28;20033;-80
2022/04/29 13:13:10;;;;;;;3.20;1.30;;;;;;;;;;5047114;28;20022;-81
2022/04/29 13:15:38;;;;;;;3.50;1.20;;;;;;;;;;5043911;28;20034;-79
2022/04/29 13:18:04;;;;;;;2.00;1.02;;;;;;;;;;5049722;28;20093;-78
2022/04/29 13:20:30;;;;;;;3.22;1.50;;;;;;;;;;5049667;28;20116;-77
2022/04/29 13:22:56;;;;;;;2.25;1.48;;;;;;;;;;5046878;28;20175;-79
2022/04/29 13:25:22;;;;;;;5.45;1.65;;;;;;;;;;5041737;28;20036;-78
2022/04/29 13:27:48;;;;;;;2.92;1.70;;;;;;;;;;5048221;28;20765;-78
2022/04/29 13:30:15;;;;;;;9.30;1.30;;;;;;;;;;5044013;28;20024;-79
2022/04/29 13:32:41;;;;;;;3.88;1.42;;;;;;;;;;5045450;28;20554;-77
2022/04/29 13:35:08;;;;;;;3.00;1.63;;;21.70;53.70;;;;;;5047894;28;20029;-77
2022/04/29 13:37:35;;;;;;;2.88;1.67;;;;;;;;;;5039096;28;20038;-77
2022/04/29 13:40:01;;;;;;;4.93;1.60;;;;;;;;;;5052185;28;20033;-78
2022/04/29 13:42:30;;;;;;;4.68;2.53;;;;;;;;;;5053469;28;20025;-78
2022/04/29 13:44:58;;;;;;;3.78;1.42;;;;;;;;;;5032450;28;20029;-78
2022/04/29 13:47:24;;;;;;;3.30;1.02;;;;;;;;;;5041853;28;20032;-77
2022/04/29 13:49:50;;;;;;;3.25;1.80;;;;;;;;;;5050197;28;20028;-77
2022/04/29 13:55:18;;;;;;;2.63;1.58;;;;;;;;;;4948322;28;20046;-78
2022/04/29 13:57:44;;;;;;;3.08;1.25;;;20.60;69.90;;;;;;5033504;28;20037;-78
2022/04/29 14:00:10;;;;;;;2.13;1.30;;;;;;;;;;5046508;28;20031;-80
2022/04/29 14:02:38;;;;;;;2.47;1.48;;;;;;;;;;5044437;28;20374;-80
2022/04/29 14:05:04;;;;;;;3.13;1.50;;;;;;;;;;5035031;28;20044;-79
2022/04/29 14:07:31;;;;;;;2.88;1.40;;;;;;;;;;5044846;28;20063;-80
2022/04/29 14:09:57;;;;;;;2.33;1.45;;;;;;;;;;5047389;28;20024;-81
2022/04/29 14:12:25;;;;;;;2.90;1.13;;;;;;;;;;5045185;28;20116;-86
2022/04/29 14:14:51;;;;;;;3.10;1.30;;;;;;;;;;5043742;28;20444;-83
2022/04/29 14:17:17;;;;;;;3.65;1.38;;;;;;;;;;5043226;28;20869;-80
2022/04/29 14:19:43;;;;;;;1.98;1.10;;;;;;;;;;5042466;28;20029;-80
2022/04/29 14:22:10;;;;;;;8.57;1.55;;;;;;;;;;5047615;28;20056;-79
2022/04/29 14:24:36;;;;;;;3.97;1.40;;;22.00;65.30;;;;;;5054209;28;20032;-81
2022/04/29 14:27:02;;;;;;;1.95;0.80;;;22.30;57.40;;;;;;5057507;28;20025;-80
2022/04/29 14:29:28;;;;;;;2.20;1.33;;;;;;;;;;5057369;28;20021;-81
2022/04/29 14:31:56;;;;;;;3.10;1.23;;;;;;;;;;5053774;28;20259;-81
2022/04/29 14:34:23;;;;;;;4.15;1.20;;;;;;;;;;5051434;28;20450;-81
2022/04/29 14:36:48;;;;;;;2.28;1.00;;;;;;;;;;5059419;28;20319;-81
2022/04/29 14:39:15;;;;;;;3.35;1.23;;;;;;;;;;5056530;28;20029;-82
2022/04/29 14:41:42;;;;;;;2.45;1.38;;;;;;;;;;5057902;28;20182;-81
2022/04/29 14:44:09;;;;;;;2.47;1.05;;;;;;;;;;5046591;28;20021;-81
2022/04/29 14:46:36;;;;;;;2.38;1.08;;;;;;;;;;5052710;28;20048;-87
2022/04/29 14:49:03;;;;;;;2.00;1.35;;;;;;;;;;5056865;28;20054;-80
2022/04/29 14:51:29;;;;;;;2.97;1.77;;;;;;;;;;5049287;28;20059;-83
2022/04/29 14:53:55;;;;;;;7.70;2.00;;;;;;;;;;5055635;28;20799;-83
2022/04/29 14:56:22;;;;;;;2.53;1.10;;;;;;;;;;5051134;28;20037;-82
2022/04/29 14:58:49;;;;;;;1.90;1.10;;;;;;;;;;5052182;28;20055;-81
2022/04/29 15:01:15;;;;;;;2.10;1.05;;;;;;;;;;5043640;28;20037;-84
2022/04/29 15:03:41;;;;;;;1.23;0.85;;;;;;;;;;5049351;28;20051;-82
2022/04/29 15:06:07;;;;;;;1.83;0.82;;;;;;;;;;5052588;28;20052;-83
2022/04/29 15:08:33;;;;;;;2.28;1.20;;;;;;;;;;5045919;28;20028;-82
2022/04/29 15:16:29;;;;;;;2.85;1.45;;;;;;;;;;5046150;28;20099;-84